Time;durP1;ratioP1;P1;durP2;ratioP2;P2;SDS_P1;SDS_P2;PMS_P1;PMS_P2;Temp;Humidity;BMP_temperature;BMP_pressure;BME280_temperature;BME280_humidity;BME280_pressure;Samples;Min_cycle;Max_cycle;Signal;HPM_P1;HPM_P2
2023/07/02 08:57:01;;;;;;;9.32;5.15;;;;;;;17.26;55.30;100905.75;5077498;28;20400;-69
2023/07/02 08:59:26;;;;;;;11.25;5.95;;;;;;;17.29;56.42;100899.75;5089769;28;20123;-70
2023/07/02 09:01:53;;;;;;;11.70;6.00;;;;;;;17.34;56.06;100907.94;5062335;28;20112;-70
2023/07/02 09:04:25;;;;;;;11.05;6.03;;;;;;;17.35;55.61;100901.41;5063588;28;20531;-73
2023/07/02 09:09:50;;;;;;;14.43;5.35;;;;;;;17.48;54.80;100898.16;5089949;28;20122;-74
2023/07/02 09:12:29;;;;;;;11.50;5.13;;;;;;;17.46;53.68;100899.50;5088400;28;20411;-81
2023/07/02 09:15:47;;;;;;;10.38;5.68;;;;;;;17.50;55.15;100898.69;5087999;28;20024;-78
2023/07/02 09:18:17;;;;;;;12.40;5.13;;;;;;;17.42;55.28;100888.28;5085201;28;20090;-74
2023/07/02 09:20:42;;;;;;;13.70;5.85;;;;;;;17.47;54.85;100893.75;5089718;28;20036;-72
2023/07/02 09:23:08;;;;;;;14.00;5.95;;;;;;;17.61;55.71;100898.72;5089161;28;20032;-72
2023/07/02 09:25:37;;;;;;;13.00;6.00;;;;;;;17.73;54.58;100890.25;5088437;28;20020;-73
2023/07/02 09:28:13;;;;;;;12.20;5.50;;;;;;;17.73;53.42;100899.28;5070626;28;20455;-71
2023/07/02 09:30:49;;;;;;;12.25;5.60;;;;;;;17.69;53.96;100895.44;5064937;28;20060;-74
2023/07/02 09:33:15;;;;;;;12.45;5.53;;;;;;;17.66;53.84;100891.34;5062948;28;20032;-75
2023/07/02 09:35:41;;;;;;;13.10;5.50;;;;;;;17.71;54.83;100885.06;5056431;28;20408;-75
2023/07/02 09:38:06;;;;;;;11.85;5.65;;;;;;;17.71;53.95;100901.47;5048592;28;20060;-75
2023/07/02 09:40:33;;;;;;;13.73;5.75;;;;;;;17.72;55.08;100894.88;5047744;28;20029;-76
2023/07/02 09:42:59;;;;;;;15.00;6.18;;;;;;;17.72;55.83;100894.88;5048895;28;20030;-74
2023/07/02 09:45:25;;;;;;;12.02;6.00;;;;;;;17.75;56.83;100897.09;5047613;28;20037;-73
2023/07/02 09:47:54;;;;;;;13.95;5.93;;;;;;;17.85;58.00;100888.88;5049330;28;20039;-75
2023/07/02 09:50:20;;;;;;;15.88;6.20;;;;;;;17.92;57.19;100896.88;5054938;28;20057;-76
2023/07/02 09:52:46;;;;;;;15.95;5.78;;;;;;;17.92;56.32;100896.03;5068491;28;20034;-73
2023/07/02 09:55:11;;;;;;;10.98;5.43;;;;;;;17.89;55.95;100892.75;5060424;28;20081;-74
2023/07/02 09:57:38;;;;;;;12.57;5.70;;;;;;;17.86;56.63;100893.28;5046627;28;20064;-72
2023/07/02 10:00:05;;;;;;;13.38;6.00;;;;;;;17.89;58.13;100903.72;5047678;28;20358;-74
2023/07/02 10:02:30;;;;;;;14.75;5.70;;;;;;;18.00;59.37;100893.56;5045123;28;20055;-72
2023/07/02 10:04:56;;;;;;;14.95;6.00;;;;;;;18.12;58.79;100904.25;5058612;28;20028;-71
2023/07/02 10:07:29;;;;;;;15.10;6.50;;;;;;;18.14;57.58;100913.00;5059090;28;20037;-73
2023/07/02 10:09:55;;;;;;;14.63;6.38;;;;;;;18.16;56.39;100901.78;5054122;28;20111;-72
2023/07/02 10:12:22;;;;;;;13.93;5.82;;;;;;;18.10;57.25;100924.78;5053974;28;20437;-72
2023/07/02 10:14:50;;;;;;;16.13;6.22;;;;;;;18.14;59.54;100921.22;5054854;28;20029;-72
2023/07/02 10:17:27;;;;;;;14.07;5.78;;;;;;;18.29;59.15;100933.28;5054929;28;20037;-72
2023/07/02 10:19:53;;;;;;;11.82;5.68;;;;;;;18.30;57.77;100927.53;5053784;28;20045;-74
2023/07/02 10:22:19;;;;;;;14.05;6.28;;;;;;;18.24;58.37;100926.72;5054840;28;20033;-72
2023/07/02 10:24:59;;;;;;;17.05;6.10;;;;;;;18.27;58.98;100927.25;5040601;28;20040;-74
2023/07/02 10:27:38;;;;;;;14.38;6.43;;;;;;;18.24;57.49;100918.50;5032270;28;20029;-71
2023/07/02 10:30:09;;;;;;;19.23;6.57;;;;;;;18.23;56.61;100925.06;5032800;28;20029;-70
2023/07/02 10:32:35;;;;;;;16.65;6.65;;;;;;;18.28;56.54;100916.00;5033639;28;20465;-69
2023/07/02 10:35:04;;;;;;;15.02;6.07;;;;;;;18.40;56.62;100919.31;5034443;28;20498;-69
2023/07/02 10:37:56;;;;;;;13.60;5.68;;;;;;;18.45;56.79;100915.75;5032959;28;20415;-76
2023/07/02 10:40:22;;;;;;;15.07;6.38;;;;;;;18.31;54.57;100926.41;5022951;28;20049;-69
2023/07/02 10:42:52;;;;;;;11.65;6.40;;;;;;;18.18;56.25;100925.06;5033695;28;20108;-69
2023/07/02 10:45:19;;;;;;;16.52;6.88;;;;;;;18.18;56.71;100932.47;5054200;28;20164;-71
2023/07/02 10:47:46;;;;;;;15.15;6.32;;;;;;;18.17;56.31;100930.81;5054318;28;20053;-71
2023/07/02 10:50:19;;;;;;;12.00;6.25;;;;;;;18.18;56.69;100937.94;5054323;28;20025;-69
2023/07/02 10:52:44;;;;;;;11.68;6.20;;;;;;;18.14;55.74;100943.13;5054194;28;20532;-70
2023/07/02 10:55:10;;;;;;;14.68;7.25;;;;;;;18.17;56.75;100928.91;5053663;28;20136;-70
2023/07/02 10:57:35;;;;;;;16.00;7.25;;;;;;;18.26;57.62;100933.84;5037315;28;20480;-70
2023/07/02 11:00:07;;;;;;;14.25;7.10;;;;;;;18.34;55.66;100941.50;5052961;28;20435;-72
2023/07/02 11:02:39;;;;;;;16.02;7.13;;;;;;;18.51;57.29;100938.44;5051930;28;20033;-70
2023/07/02 11:05:11;;;;;;;18.80;7.88;;;;;;;18.47;56.79;100919.00;5042645;28;20416;-70
2023/07/02 11:07:41;;;;;;;15.85;8.07;;;;;;;18.70;57.32;100931.28;5031591;28;20035;-70
2023/07/02 11:10:08;;;;;;;19.85;7.38;;;;;;;18.75;56.95;100931.28;5032663;28;20377;-70
2023/07/02 11:12:33;;;;;;;17.63;7.88;;;;;;;18.61;56.13;100935.69;5034204;28;20087;-70
2023/07/02 11:15:10;;;;;;;17.27;8.32;;;;;;;18.40;57.91;100938.50;5033379;28;20033;-74
2023/07/02 11:17:35;;;;;;;18.20;7.82;;;;;;;18.26;58.29;100944.78;5030217;28;20098;-70
2023/07/02 11:20:01;;;;;;;18.90;7.97;;;;;;;18.14;59.61;100937.66;5032598;28;20465;-74
2023/07/02 11:22:33;;;;;;;19.98;8.30;;;;;;;18.06;60.11;100936.28;5033613;28;20029;-73
2023/07/02 11:25:09;;;;;;;17.98;7.70;;;;;;;18.08;61.03;100948.91;5033374;28;20091;-70
2023/07/02 11:27:34;;;;;;;18.48;7.85;;;;;;;18.06;60.28;100943.69;5033976;28;20080;-72
2023/07/02 11:29:59;;;;;;;14.90;7.55;;;;;;;18.02;60.80;100937.09;5032224;28;20030;-74
2023/07/02 11:32:25;;;;;;;18.58;7.78;;;;;;;18.15;61.11;100944.78;5028491;28;20489;-73
2023/07/02 11:34:54;;;;;;;16.58;8.00;;;;;;;18.14;60.93;100943.13;5038765;28;20388;-74
2023/07/02 11:37:19;;;;;;;18.67;8.02;;;;;;;18.24;62.34;100947.81;5031996;28;20091;-73
2023/07/02 11:39:45;;;;;;;19.10;8.02;;;;;;;18.21;59.82;100937.41;5031958;28;20041;-72
2023/07/02 11:42:10;;;;;;;16.77;8.00;;;;;;;18.21;60.83;100937.41;5033690;28;20064;-74
2023/07/02 11:44:35;;;;;;;16.98;7.70;;;;;;;18.27;58.74;100935.47;5033384;28;20103;-74
2023/07/02 11:47:04;;;;;;;18.15;7.97;;;;;;;18.52;60.33;100934.63;5032189;28;20031;-79
2023/07/02 11:49:29;;;;;;;15.73;6.88;;;;;;;18.87;61.15;100933.78;5033175;28;20086;-73
2023/07/02 11:51:54;;;;;;;19.25;7.45;;;;;;;18.91;55.35;100934.03;5048406;28;20029;-71
2023/07/02 11:54:20;;;;;;;17.00;7.97;;;;;;;18.90;57.34;100929.63;5053118;28;20448;-74
2023/07/02 11:56:45;;;;;;;17.60;7.53;;;;;;;18.94;56.38;100934.28;5052792;28;20533;-72
2023/07/02 11:59:11;;;;;;;14.10;6.65;;;;;;;18.89;54.07;100937.03;5053134;28;20422;-72
2023/07/02 12:01:36;;;;;;;14.27;7.20;;;;;;;19.11;56.17;100923.00;5030875;28;20437;-72
2023/07/02 12:04:02;;;;;;;14.77;7.20;;;;;;;19.29;54.48;100918.78;5033253;28;20033;-73
2023/07/02 12:06:27;;;;;;;13.02;6.68;;;;;;;19.62;56.38;100921.06;5043775;28;20087;-74
2023/07/02 12:08:53;;;;;;;16.35;6.68;;;;;;;19.47;52.31;100925.56;5051736;28;20025;-72
2023/07/02 12:11:18;;;;;;;16.27;6.70;;;;;;;19.39;54.63;100928.06;5052518;28;20033;-74
2023/07/02 12:13:43;;;;;;;14.68;6.20;;;;;;;19.25;52.27;100930.63;5053265;28;20078;-73
2023/07/02 12:16:09;;;;;;;14.73;6.47;;;;;;;19.11;50.05;100933.13;5052361;28;20024;-74
2023/07/02 12:18:34;;;;;;;16.48;5.72;;;;;;;19.01;49.43;100935.91;5038426;28;20091;-72
2023/07/02 12:21:00;;;;;;;13.40;5.57;;;;;;;19.07;49.81;100926.56;5031307;28;20445;-72
2023/07/02 12:23:25;;;;;;;11.98;5.90;;;;;;;19.10;50.06;100931.50;5030983;28;20021;-74
2023/07/02 12:25:51;;;;;;;15.13;5.25;;;;;;;19.19;49.66;100937.19;5032445;28;20436;-75
2023/07/02 12:28:24;;;;;;;12.48;6.07;;;;;;;19.41;50.39;100928.59;5032485;28;20036;-78
2023/07/02 12:30:50;;;;;;;11.77;5.60;;;;;;;19.60;47.52;100937.81;5032194;28;20092;-75
2023/07/02 12:33:15;;;;;;;10.45;5.57;;;;;;;19.64;46.06;100936.16;5028136;28;20496;-74
2023/07/02 12:35:40;;;;;;;9.88;5.00;;;;;;;19.68;46.74;100935.59;5029929;28;20029;-74
2023/07/02 12:38:08;;;;;;;11.77;4.53;;;;;;;19.61;45.74;100927.66;5030647;28;20483;-75
2023/07/02 12:40:33;;;;;;;12.80;5.05;;;;;;;19.49;45.81;100930.75;5017272;28;20026;-73
2023/07/02 12:42:59;;;;;;;7.30;4.22;;;;;;;19.64;45.40;100929.81;5031445;28;20037;-75
2023/07/02 12:45:24;;;;;;;11.40;4.53;;;;;;;19.89;45.44;100936.31;5031554;28;20112;-75
2023/07/02 12:47:49;;;;;;;8.27;4.22;;;;;;;19.99;44.22;100926.06;5032466;28;20178;-76
2023/07/02 12:50:15;;;;;;;9.70;4.63;;;;;;;20.01;44.45;100921.09;5029481;28;20144;-72
2023/07/02 12:52:40;;;;;;;8.68;4.38;;;;;;;19.97;42.05;100916.44;5032156;28;20037;-71
2023/07/02 12:55:06;;;;;;;10.20;4.20;;;;;;;20.15;42.28;100934.16;5031993;28;20061;-71
2023/07/02 12:57:40;;;;;;;10.82;4.40;;;;;;;20.21;42.42;100933.00;5029555;28;20033;-76
2023/07/02 13:00:08;;;;;;;8.05;3.78;;;;;;;20.35;42.94;100950.50;5031407;28;20087;-74
2023/07/02 13:02:33;;;;;;;10.23;4.32;;;;;;;20.41;42.05;100943.03;5027727;28;20029;-72
2023/07/02 13:04:59;;;;;;;8.07;3.90;;;;;;;20.50;41.92;100941.28;5032452;28;20037;-71
2023/07/02 13:07:25;;;;;;;7.90;3.58;;;;;;;20.54;41.34;100945.06;5031982;28;20469;-70
2023/07/02 13:09:51;;;;;;;11.48;4.10;;;;;;;20.60;41.84;100934.03;5047620;28;20025;-71
2023/07/02 13:12:16;;;;;;;7.82;3.70;;;;;;;20.90;43.08;100943.91;5032148;28;20463;-70
2023/07/02 13:14:42;;;;;;;11.13;4.47;;;;;;;21.15;41.94;100939.22;5032006;28;20488;-70
2023/07/02 13:17:08;;;;;;;9.80;4.28;;;;;;;21.27;41.89;100936.84;5029808;28;20033;-70
2023/07/02 13:19:34;;;;;;;8.50;4.65;;;;;;;21.45;42.43;100942.69;5030507;28;20468;-71
2023/07/02 13:21:59;;;;;;;10.55;4.30;;;;;;;21.40;42.41;100947.13;5047462;28;20116;-70
2023/07/02 13:24:24;;;;;;;11.70;4.30;;;;;;;21.01;40.74;100944.63;5051957;28;20029;-72
2023/07/02 13:26:51;;;;;;;13.15;4.03;;;;;;;20.71;41.52;100952.09;5052199;28;20029;-71
2023/07/02 13:29:16;;;;;;;10.32;3.60;;;;;;;20.83;42.19;100949.75;5050635;28;20029;-70
2023/07/02 13:31:42;;;;;;;7.95;3.90;;;;;;;21.05;42.07;100952.00;5041435;28;20152;-70
2023/07/02 13:34:07;;;;;;;9.68;4.30;;;;;;;21.05;41.97;100954.75;5030039;28;20075;-70
2023/07/02 13:36:32;;;;;;;9.60;4.13;;;;;;;20.94;42.48;100946.91;5030528;28;20033;-74
2023/07/02 13:38:58;;;;;;;11.20;4.32;;;;;;;20.77;42.18;100944.63;5027267;28;20063;-71
2023/07/02 13:41:23;;;;;;;16.83;5.10;;;;;;;20.81;41.37;100951.19;5027672;28;20030;-72
2023/07/02 13:43:49;;;;;;;9.48;4.53;;;;;;;21.01;42.22;100950.94;5034498;28;20263;-70
2023/07/02 13:46:14;;;;;;;12.43;4.90;;;;;;;21.16;42.88;100954.63;5035306;28;20055;-71
2023/07/02 13:48:40;;;;;;;13.95;4.95;;;;;;;21.00;41.91;100956.72;5035712;28;20456;-71
2023/07/02 13:51:07;;;;;;;13.02;4.53;;;;;;;20.77;42.44;100944.63;5035425;28;20103;-72
2023/07/02 13:53:33;;;;;;;8.98;4.55;;;;;;;20.64;43.16;100944.16;5035213;28;20037;-72
2023/07/02 13:55:58;;;;;;;9.68;4.47;;;;;;;20.88;42.85;100946.16;5049751;28;20057;-70
2023/07/02 13:58:23;;;;;;;10.68;4.15;;;;;;;21.10;43.12;100959.34;5042449;28;20358;-71
2023/07/02 14:00:49;;;;;;;8.13;4.20;;;;;;;21.24;42.56;100953.97;5033204;28;20736;-70
2023/07/02 14:03:14;;;;;;;10.82;4.07;;;;;;;21.31;41.87;100959.94;5035127;28;20389;-73
2023/07/02 14:05:40;;;;;;;9.23;3.53;;;;;;;21.43;41.72;100943.78;5035199;28;20117;-71
2023/07/02 14:08:05;;;;;;;8.95;4.30;;;;;;;21.61;41.80;100951.59;5033804;28;20496;-70
2023/07/02 14:10:31;;;;;;;7.53;3.95;;;;;;;21.72;41.81;100948.38;5032644;28;20627;-72
2023/07/02 14:12:56;;;;;;;12.93;4.25;;;;;;;21.49;41.93;100949.25;5046731;28;20044;-71
2023/07/02 14:15:23;;;;;;;11.10;4.28;;;;;;;21.16;41.59;100954.63;5054960;28;20028;-73
2023/07/02 14:17:49;;;;;;;10.70;4.38;;;;;;;21.21;42.25;100958.13;5055150;28;20468;-70
2023/07/02 14:20:14;;;;;;;8.70;4.13;;;;;;;21.37;41.75;100953.25;5054898;28;20087;-71
2023/07/02 14:22:39;;;;;;;8.55;4.40;;;;;;;21.31;41.50;100951.66;5055091;28;20057;-71
2023/07/02 14:25:05;;;;;;;9.93;4.43;;;;;;;21.22;41.84;100956.19;5051904;28;20119;-73
2023/07/02 14:27:30;;;;;;;10.38;4.15;;;;;;;21.35;41.65;100949.16;5048738;28;20029;-72
2023/07/02 14:29:57;;;;;;;10.38;4.55;;;;;;;21.67;41.39;100942.97;5054930;28;20036;-69
2023/07/02 14:32:22;;;;;;;9.23;4.50;;;;;;;22.05;40.29;100940.16;5054313;28;20029;-72
2023/07/02 14:34:48;;;;;;;13.98;5.35;;;;;;;22.07;39.84;100937.09;5043091;28;20603;-70
2023/07/02 14:37:13;;;;;;;11.10;4.90;;;;;;;22.47;40.56;100934.81;5033841;28;20108;-70
2023/07/02 14:39:38;;;;;;;12.40;4.60;;;;;;;22.50;39.21;100927.88;5034593;28;20029;-72
2023/07/02 14:42:06;;;;;;;9.35;4.43;;;;;;;22.67;39.13;100927.28;5025148;28;20030;-74
2023/07/02 14:44:31;;;;;;;10.57;4.53;;;;;;;22.82;39.51;100924.22;5014759;28;20041;-72
2023/07/02 14:46:57;;;;;;;11.00;4.50;;;;;;;22.86;38.12;100929.94;5013247;28;20030;-74
2023/07/02 14:49:22;;;;;;;11.63;4.70;;;;;;;22.97;38.95;100920.34;5013320;28;20034;-73
2023/07/02 14:51:47;;;;;;;11.77;4.50;;;;;;;22.89;38.58;100923.81;5015061;28;20034;-72
2023/07/02 14:54:13;;;;;;;8.75;4.60;;;;;;;23.10;38.21;100925.06;5014763;28;20409;-73
2023/07/02 14:56:39;;;;;;;17.00;5.03;;;;;;;22.96;38.39;100924.22;5020273;28;20128;-74
2023/07/02 14:59:06;;;;;;;13.00;4.95;;;;;;;22.94;37.82;100920.97;5034522;28;20030;-74
2023/07/02 15:01:32;;;;;;;11.32;5.18;;;;;;;22.99;38.69;100923.59;5031858;28;20040;-69
2023/07/02 15:03:57;;;;;;;10.20;4.78;;;;;;;22.82;37.95;100914.00;5034682;28;20029;-71
2023/07/02 15:06:22;;;;;;;11.10;4.50;;;;;;;22.95;39.05;100917.88;5032830;28;20029;-71
2023/07/02 15:08:48;;;;;;;12.07;5.13;;;;;;;23.01;38.96;100919.41;5034260;28;20030;-71
2023/07/02 15:11:15;;;;;;;11.52;5.20;;;;;;;23.10;37.81;100910.44;5030528;28;20029;-72
2023/07/02 15:13:43;;;;;;;12.50;4.82;;;;;;;23.25;38.31;100912.88;5032775;28;20033;-70
2023/07/02 15:16:10;;;;;;;11.55;5.43;;;;;;;23.36;37.98;100919.81;5032722;28;20036;-72
2023/07/02 15:18:35;;;;;;;11.98;4.97;;;;;;;23.23;37.71;100928.13;5048243;28;20625;-72
2023/07/02 15:21:01;;;;;;;11.10;4.43;;;;;;;22.92;38.14;100918.50;5044395;28;20037;-71
2023/07/02 15:23:27;;;;;;;11.77;5.43;;;;;;;22.79;37.94;100920.13;5033943;28;20049;-72
2023/07/02 15:25:58;;;;;;;10.45;4.85;;;;;;;22.53;39.18;100924.50;5035520;28;20528;-77
2023/07/02 15:28:25;;;;;;;10.00;4.80;;;;;;;22.26;39.81;100915.03;5031704;28;20037;-71
2023/07/02 15:31:02;;;;;;;10.82;5.28;;;;;;;22.10;40.34;100915.28;5028480;28;20044;-71
2023/07/02 15:33:27;;;;;;;10.98;4.72;;;;;;;22.35;40.17;100909.69;5033326;28;20409;-72
2023/07/02 15:35:53;;;;;;;10.45;5.03;;;;;;;22.35;40.27;100906.91;5031190;28;20021;-73
2023/07/02 15:38:18;;;;;;;12.57;4.95;;;;;;;22.48;40.83;100909.69;5026025;28;20578;-73
2023/07/02 15:40:46;;;;;;;13.15;5.22;;;;;;;22.67;40.14;100899.69;5027514;28;20495;-71
2023/07/02 15:43:12;;;;;;;12.77;5.53;;;;;;;22.82;40.09;100902.16;5027062;28;20159;-72
2023/07/02 15:45:37;;;;;;;15.70;5.53;;;;;;;22.87;39.72;100904.00;5024888;28;20484;-71
2023/07/02 15:48:03;;;;;;;14.00;5.72;;;;;;;22.87;39.18;100904.78;5024563;28;20033;-73
2023/07/02 15:50:28;;;;;;;11.68;5.28;;;;;;;23.07;39.27;100895.31;5034340;28;20033;-71
2023/07/02 15:52:54;;;;;;;12.88;5.32;;;;;;;23.02;38.30;100900.91;5048887;28;20052;-72
2023/07/02 15:55:20;;;;;;;12.98;5.22;;;;;;;23.09;38.53;100900.50;5044757;28;20085;-73
2023/07/02 15:57:46;;;;;;;13.32;5.55;;;;;;;23.40;37.99;100892.41;5029808;28;20034;-73
2023/07/02 16:00:13;;;;;;;14.77;5.60;;;;;;;23.66;38.59;100887.09;5024370;28;20025;-72
2023/07/02 16:02:38;;;;;;;11.05;5.00;;;;;;;23.82;38.43;100895.81;5016285;28;20100;-72
2023/07/02 16:05:04;;;;;;;11.43;5.03;;;;;;;23.95;37.29;100904.41;5018338;28;20073;-72
2023/07/02 16:07:29;;;;;;;12.40;5.18;;;;;;;23.82;36.90;100900.53;5018864;28;20030;-70
